Time;durP1;ratioP1;P1;durP2;ratioP2;P2;SDS_P1;SDS_P2;PMS_P1;PMS_P2;Temp;Humidity;BMP_temperature;BMP_pressure;BME280_temperature;BME280_humidity;BME280_pressure;Samples;Min_cycle;Max_cycle;Signal;HPM_P1;HPM_P2
2022/01/25 00:32:16;;;;;;;7.00;5.65;;;23.40;33.20;;;;;;5026437;28;20053;-45
2022/01/25 00:34:43;;;;;;;6.93;5.70;;;23.40;33.20;;;;;;5026330;28;20500;-44
2022/01/25 00:37:09;;;;;;;7.20;6.13;;;23.30;33.30;;;;;;5025766;28;20033;-45
2022/01/25 00:39:37;;;;;;;7.10;6.10;;;23.30;33.20;;;;;;5026307;28;20025;-47
2022/01/25 00:42:07;;;;;;;6.55;5.57;;;23.30;33.20;;;;;;5026884;28;20052;-44
2022/01/25 00:44:37;;;;;;;7.38;5.90;;;23.30;33.20;;;;;;5025102;28;20556;-44
2022/01/25 00:47:06;;;;;;;7.40;6.07;;;23.30;33.20;;;;;;5025965;28;20025;-44
2022/01/25 00:49:36;;;;;;;7.25;6.05;;;23.30;33.30;;;;;;5024968;28;20025;-45
2022/01/25 00:52:17;;;;;;;6.15;5.30;;;23.30;33.30;;;;;;5026089;28;20037;-45
2022/01/25 00:54:43;;;;;;;6.47;5.50;;;23.30;33.30;;;;;;5026021;28;20026;-45
2022/01/25 00:57:09;;;;;;;6.30;5.03;;;23.20;33.20;;;;;;5025683;28;20113;-45
2022/01/25 00:59:35;;;;;;;7.13;6.00;;;23.20;33.20;;;;;;5024454;28;20041;-45
2022/01/25 01:02:05;;;;;;;6.43;5.43;;;23.20;33.30;;;;;;5026042;28;20033;-43
2022/01/25 01:04:32;;;;;;;7.07;5.97;;;23.20;33.30;;;;;;5024828;28;20040;-43
2022/01/25 01:07:00;;;;;;;7.55;5.95;;;23.20;33.20;;;;;;5025051;28;20026;-47
2022/01/25 01:09:28;;;;;;;7.85;6.00;;;23.20;33.20;;;;;;5025482;28;20079;-45
2022/01/25 01:12:06;;;;;;;6.82;5.57;;;23.20;33.30;;;;;;5025591;28;20037;-46
2022/01/25 01:30:57;;;;;;;7.35;5.68;;;23.10;33.20;;;;;;5024578;28;20057;-45
2022/01/25 01:46:30;;;;;;;7.13;5.70;;;23.00;33.20;;;;;;5024921;28;20098;-46
2022/01/25 01:51:26;;;;;;;6.50;5.18;;;23.00;33.20;;;;;;5024782;28;20072;-46
2022/01/25 01:53:54;;;;;;;6.90;5.65;;;22.90;33.20;;;;;;5024871;28;20057;-44
2022/01/25 01:56:20;;;;;;;6.60;5.88;;;23.00;33.20;;;;;;5024204;28;20113;-45
2022/01/25 01:58:45;;;;;;;6.45;5.53;;;22.90;33.30;;;;;;5025045;28;20632;-46
2022/01/25 02:01:16;;;;;;;6.75;5.32;;;22.90;33.30;;;;;;5024271;28;20029;-44
2022/01/25 02:03:42;;;;;;;7.03;5.75;;;22.90;33.30;;;;;;5024418;28;20028;-47
2022/01/25 02:06:08;;;;;;;7.30;5.95;;;22.90;33.30;;;;;;5024135;28;20033;-47
2022/01/25 02:08:34;;;;;;;6.47;5.40;;;22.90;33.30;;;;;;5024630;28;20033;-44
2022/01/25 02:11:04;;;;;;;6.45;5.55;;;22.90;33.30;;;;;;5024959;28;20041;-45
2022/01/25 02:13:30;;;;;;;6.68;5.57;;;22.90;33.30;;;;;;5024633;28;20026;-47
2022/01/25 02:15:57;;;;;;;6.75;5.68;;;22.90;33.40;;;;;;5024458;28;20067;-44
2022/01/25 02:23:52;;;;;;;6.78;5.22;;;22.80;33.30;;;;;;5024649;28;20060;-46
2022/01/25 02:26:18;;;;;;;6.88;5.45;;;22.80;33.20;;;;;;5024547;28;20026;-44
2022/01/25 02:28:45;;;;;;;6.80;5.80;;;22.80;33.20;;;;;;5024391;28;20022;-45
2022/01/25 02:31:13;;;;;;;7.00;6.03;;;22.80;33.20;;;;;;5024615;28;20030;-44
2022/01/25 02:33:39;;;;;;;6.75;5.43;;;22.80;33.20;;;;;;5023937;28;20029;-48
2022/01/25 02:36:13;;;;;;;6.03;5.00;;;22.80;33.20;;;;;;5024074;28;20604;-44
2022/01/25 02:38:39;;;;;;;6.40;5.30;;;22.70;33.20;;;;;;5024606;28;20438;-44
2022/01/25 02:41:05;;;;;;;7.07;5.88;;;22.70;33.20;;;;;;5024842;28;20060;-44
2022/01/25 02:43:34;;;;;;;7.15;5.70;;;22.80;33.20;;;;;;5024459;28;20444;-44
2022/01/25 02:48:45;;;;;;;6.47;5.38;;;22.70;33.30;;;;;;5024572;28;20032;-44
2022/01/25 02:51:11;;;;;;;6.07;5.32;;;22.70;33.30;;;;;;5025686;28;20029;-45
2022/01/25 02:53:37;;;;;;;6.50;5.38;;;22.70;33.30;;;;;;5027827;28;20409;-45
2022/01/25 02:56:02;;;;;;;6.47;5.32;;;22.70;33.30;;;;;;5027728;28;20600;-43
2022/01/25 02:58:28;;;;;;;6.72;5.35;;;22.70;33.30;;;;;;5026645;28;20044;-45
2022/01/25 03:00:54;;;;;;;7.30;5.97;;;22.70;33.30;;;;;;5028250;28;20025;-45
2022/01/25 03:03:19;;;;;;;6.07;5.15;;;22.70;33.30;;;;;;5027462;28;20649;-46
2022/01/25 03:05:45;;;;;;;6.75;5.70;;;22.70;33.30;;;;;;5027902;28;20044;-44
2022/01/25 03:08:14;;;;;;;6.60;5.53;;;22.70;33.30;;;;;;5027331;28;20119;-46
2022/01/25 03:10:43;;;;;;;6.60;5.53;;;22.60;33.30;;;;;;5028021;28;20120;-44
2022/01/25 03:13:14;;;;;;;7.82;6.60;;;22.60;33.30;;;;;;5028251;28;20025;-43
2022/01/25 03:21:15;;;;;;;6.35;5.07;;;22.60;33.20;;;;;;5028045;28;20036;-44
2022/01/25 03:23:41;;;;;;;6.55;5.68;;;22.60;33.20;;;;;;5006377;28;20061;-45
2022/01/25 03:26:07;;;;;;;5.95;4.80;;;22.50;33.20;;;;;;5012965;28;20029;-44
2022/01/25 03:28:33;;;;;;;6.68;5.47;;;22.60;33.20;;;;;;5027950;28;20030;-44
2022/01/25 03:30:59;;;;;;;6.47;5.25;;;22.60;33.20;;;;;;5027765;28;20025;-45
2022/01/25 03:33:25;;;;;;;6.78;5.47;;;22.60;33.20;;;;;;5027338;28;20029;-44
2022/01/25 03:35:50;;;;;;;6.65;5.53;;;22.60;33.20;;;;;;5027654;28;20037;-45
2022/01/25 03:38:16;;;;;;;6.20;5.38;;;22.60;33.30;;;;;;5027236;28;20054;-44
2022/01/25 03:40:44;;;;;;;6.72;5.50;;;22.60;33.30;;;;;;5026933;28;20038;-43
2022/01/25 03:43:11;;;;;;;6.80;5.13;;;22.50;33.20;;;;;;5027102;28;20040;-44
2022/01/25 03:45:40;;;;;;;7.13;5.93;;;22.60;33.20;;;;;;5027199;28;20025;-44
2022/01/25 03:50:46;;;;;;;7.07;5.57;;;22.50;33.30;;;;;;5027031;28;20077;-47
2022/01/25 03:53:13;;;;;;;6.20;5.07;;;22.50;33.30;;;;;;5025926;28;20022;-44
2022/01/25 03:55:39;;;;;;;6.40;5.50;;;22.50;33.30;;;;;;5027480;28;20446;-45
2022/01/25 03:58:06;;;;;;;6.38;5.10;;;22.50;33.30;;;;;;5027257;28;20292;-45
2022/01/25 04:00:33;;;;;;;7.63;5.72;;;22.50;33.30;;;;;;5026665;28;20057;-46
2022/01/25 04:03:09;;;;;;;7.00;5.60;;;22.50;33.20;;;;;;5027287;28;20068;-43
2022/01/25 04:08:03;;;;;;;6.43;5.38;;;22.50;33.30;;;;;;5026220;28;20037;-44
2022/01/25 04:10:29;;;;;;;6.72;5.10;;;22.50;33.30;;;;;;5026553;28;20030;-44
2022/01/25 04:12:55;;;;;;;6.35;4.97;;;22.50;33.20;;;;;;5026927;28;20036;-44
2022/01/25 04:15:21;;;;;;;6.30;5.20;;;22.40;33.10;;;;;;5027174;28;20481;-45
2022/01/25 04:17:52;;;;;;;6.22;5.13;;;22.40;33.10;;;;;;5026442;28;20025;-44
2022/01/25 04:20:32;;;;;;;6.45;5.28;;;22.40;33.20;;;;;;5026049;28;20037;-45
2022/01/25 04:25:42;;;;;;;5.97;4.70;;;22.40;33.20;;;;;;5026604;28;20442;-43
2022/01/25 04:28:08;;;;;;;6.43;5.03;;;22.40;33.20;;;;;;5026376;28;20228;-45
2022/01/25 04:30:33;;;;;;;6.85;5.38;;;22.40;33.20;;;;;;5026290;28;20091;-45
2022/01/25 04:33:03;;;;;;;6.07;4.82;;;22.40;33.20;;;;;;5025738;28;20094;-44
2022/01/25 04:49:12;;;;;;;6.07;5.20;;;22.30;33.20;;;;;;5026276;28;20474;-45
2022/01/25 04:51:47;;;;;;;7.28;5.45;;;22.30;33.20;;;;;;5025744;28;20112;-44
2022/01/25 04:54:24;;;;;;;6.22;5.13;;;22.30;33.20;;;;;;5006410;28;20033;-44
2022/01/25 04:59:25;;;;;;;7.00;5.28;;;22.30;33.20;;;;;;5005649;28;20034;-46
2022/01/25 05:01:56;;;;;;;6.22;5.00;;;22.30;33.20;;;;;;5008245;28;20597;-44
2022/01/25 05:04:30;;;;;;;6.70;5.43;;;22.30;33.20;;;;;;5010014;28;20037;-47
2022/01/25 05:07:04;;;;;;;6.03;4.88;;;22.30;33.20;;;;;;5025303;28;20040;-43
2022/01/25 05:09:33;;;;;;;6.00;4.70;;;22.30;33.30;;;;;;5023559;28;20037;-43
2022/01/25 05:11:59;;;;;;;6.10;5.07;;;22.30;33.30;;;;;;5023330;28;20040;-46
2022/01/25 05:14:31;;;;;;;6.95;5.25;;;22.30;33.30;;;;;;5024572;28;20022;-44
2022/01/25 05:17:00;;;;;;;6.68;5.18;;;22.30;33.30;;;;;;5023536;28;20013;-46
2022/01/25 05:24:44;;;;;;;73.05;28.95;;;22.30;34.30;;;;;;5024492;28;20063;-43
2022/01/25 05:27:12;;;;;;;69.75;28.08;;;22.30;34.80;;;;;;5023087;28;20103;-46
2022/01/25 05:29:38;;;;;;;71.57;25.17;;;22.30;34.80;;;;;;5024299;28;20025;-43
2022/01/25 05:32:05;;;;;;;53.35;23.42;;;22.30;35.50;;;;;;5022900;28;20022;-43
2022/01/25 05:34:31;;;;;;;46.35;23.25;;;22.30;34.70;;;;;;5023799;28;20448;-44
2022/01/25 05:36:57;;;;;;;52.72;23.25;;;22.30;34.50;;;;;;5023818;28;20021;-47
2022/01/25 05:39:28;;;;;;;47.00;21.50;;;22.30;34.40;;;;;;5023715;28;20026;-46
2022/01/25 05:41:57;;;;;;;42.63;19.08;;;22.30;34.30;;;;;;5020326;28;20108;-43
2022/01/25 05:44:40;;;;;;;39.30;18.45;;;22.30;34.30;;;;;;5021170;28;20121;-44
2022/01/25 05:47:08;;;;;;;36.67;16.75;;;22.30;34.20;;;;;;5022013;28;20044;-44
2022/01/25 05:49:36;;;;;;;39.63;17.05;;;22.40;34.30;;;;;;5022377;28;20489;-46
2022/01/25 05:52:07;;;;;;;27.48;14.65;;;22.40;34.30;;;;;;5023442;28;20037;-44
2022/01/25 05:54:33;;;;;;;23.38;13.23;;;22.50;34.30;;;;;;5023652;28;20033;-43
2022/01/25 05:56:59;;;;;;;27.17;14.25;;;22.50;34.20;;;;;;5023539;28;20068;-44
2022/01/25 05:59:25;;;;;;;25.92;13.30;;;22.60;34.20;;;;;;5024893;28;20029;-43
2022/01/25 06:01:51;;;;;;;23.65;13.35;;;22.60;34.10;;;;;;5024161;28;20052;-46
2022/01/25 06:04:17;;;;;;;23.25;12.02;;;22.70;34.20;;;;;;5023451;28;20385;-46
2022/01/25 06:06:43;;;;;;;23.65;12.25;;;22.80;34.00;;;;;;5020624;28;20051;-44
2022/01/25 06:09:09;;;;;;;25.75;12.02;;;22.80;33.90;;;;;;5023758;28;20041;-44
2022/01/25 06:11:35;;;;;;;21.45;11.75;;;22.90;33.90;;;;;;5024032;28;20714;-44
2022/01/25 06:14:01;;;;;;;17.85;11.35;;;23.00;34.00;;;;;;5024082;28;20017;-46
2022/01/25 06:16:30;;;;;;;17.55;9.70;;;23.00;33.90;;;;;;5021885;28;20028;-46
2022/01/25 06:18:57;;;;;;;15.48;9.02;;;23.10;34.00;;;;;;5021710;28;20025;-43
2022/01/25 06:21:23;;;;;;;15.40;9.23;;;23.20;33.80;;;;;;5023580;28;20041;-44
2022/01/25 06:23:49;;;;;;;14.48;9.27;;;23.20;33.70;;;;;;5023320;28;20041;-47
2022/01/25 06:26:16;;;;;;;13.77;8.68;;;23.30;33.60;;;;;;5023656;28;20049;-45
2022/01/25 06:28:42;;;;;;;14.98;9.02;;;23.40;33.50;;;;;;5023230;28;20492;-45
2022/01/25 06:31:08;;;;;;;13.52;9.70;;;23.40;33.50;;;;;;5022250;28;20025;-45
2022/01/25 06:33:34;;;;;;;12.27;8.27;;;23.50;33.40;;;;;;5022868;28;20029;-46
2022/01/25 06:36:01;;;;;;;13.68;8.77;;;23.60;33.30;;;;;;5022692;28;20420;-45
2022/01/25 06:38:27;;;;;;;11.80;7.82;;;23.60;33.10;;;;;;5022659;28;20119;-44
2022/01/25 06:40:53;;;;;;;16.73;8.68;;;23.70;33.10;;;;;;5023297;28;20059;-46
2022/01/25 06:43:19;;;;;;;12.93;8.20;;;23.70;33.00;;;;;;5023401;28;20552;-45
2022/01/25 06:45:54;;;;;;;12.05;8.45;;;23.80;32.90;;;;;;5022194;28;20136;-49
2022/01/25 06:48:20;;;;;;;12.30;7.55;;;23.90;33.50;;;;;;5021868;28;20021;-47
2022/01/25 06:50:45;;;;;;;10.45;7.00;;;23.90;32.70;;;;;;5022557;28;20555;-44
2022/01/25 06:53:11;;;;;;;9.57;6.85;;;24.00;32.60;;;;;;5022843;28;20022;-46
2022/01/25 06:55:37;;;;;;;11.57;8.00;;;24.00;33.10;;;;;;5023420;28;20021;-44
2022/01/25 06:58:03;;;;;;;11.80;7.50;;;24.10;32.40;;;;;;5023261;28;20052;-47
2022/01/25 07:00:28;;;;;;;11.43;7.97;;;24.10;32.30;;;;;;5023148;28;20036;-45
2022/01/25 07:02:54;;;;;;;12.68;7.40;;;24.20;32.20;;;;;;5023120;28;20069;-44
2022/01/25 07:05:20;;;;;;;9.77;7.13;;;24.20;32.10;;;;;;5022642;28;20651;-45
2022/01/25 07:07:47;;;;;;;9.60;6.80;;;24.30;32.10;;;;;;5021469;28;20033;-48
2022/01/25 07:10:13;;;;;;;10.13;7.35;;;24.30;32.00;;;;;;5023163;28;20044;-44
2022/01/25 07:12:39;;;;;;;9.60;6.97;;;24.40;31.90;;;;;;5022341;28;20084;-44
2022/01/25 07:15:05;;;;;;;8.80;6.50;;;24.40;31.80;;;;;;5022999;28;20029;-45
2022/01/25 07:17:32;;;;;;;8.35;6.38;;;24.50;31.80;;;;;;5022916;28;20092;-45
2022/01/25 07:19:57;;;;;;;9.80;6.63;;;24.50;32.40;;;;;;5022506;28;20029;-47
2022/01/25 07:22:23;;;;;;;11.20;6.78;;;24.60;31.60;;;;;;5023106;28;20637;-44
2022/01/25 07:24:49;;;;;;;7.75;5.72;;;24.60;31.50;;;;;;5023838;28;20033;-45
2022/01/25 07:27:15;;;;;;;8.73;7.07;;;24.70;31.60;;;;;;5022272;28;20033;-45
2022/01/25 07:29:40;;;;;;;8.55;6.68;;;24.70;31.50;;;;;;5022889;28;20025;-47
2022/01/25 07:32:06;;;;;;;8.00;5.60;;;24.70;31.40;;;;;;5021555;28;20060;-47
2022/01/25 07:34:32;;;;;;;7.60;6.18;;;24.80;31.30;;;;;;5022572;28;20064;-44
2022/01/25 07:36:58;;;;;;;8.55;6.28;;;24.80;31.40;;;;;;5024357;28;20312;-46
2022/01/25 07:39:26;;;;;;;8.68;6.35;;;24.80;31.40;;;;;;5025428;28;20049;-44
2022/01/25 07:41:57;;;;;;;8.77;6.07;;;24.90;31.40;;;;;;5025867;28;20091;-44
2022/01/25 07:44:27;;;;;;;7.50;6.30;;;24.90;31.30;;;;;;5025456;28;20029;-47
2022/01/25 07:46:53;;;;;;;8.38;5.75;;;24.90;31.30;;;;;;5026517;28;20070;-45
2022/01/25 07:49:19;;;;;;;9.82;6.13;;;25.00;31.10;;;;;;5026797;28;20079;-47
2022/01/25 07:51:44;;;;;;;7.65;5.82;;;25.00;31.10;;;;;;5027134;28;20026;-46
2022/01/25 07:54:10;;;;;;;6.63;4.68;;;25.00;31.20;;;;;;5027854;28;20517;-44
2022/01/25 07:56:36;;;;;;;8.50;5.50;;;25.00;31.10;;;;;;5025902;28;20021;-47
2022/01/25 07:59:02;;;;;;;7.30;5.82;;;25.00;31.10;;;;;;5027053;28;20025;-47
2022/01/25 08:01:28;;;;;;;6.55;5.15;;;25.10;31.00;;;;;;5026630;28;20486;-45
2022/01/25 08:03:54;;;;;;;6.88;5.20;;;25.10;30.90;;;;;;5027107;28;20037;-44
2022/01/25 08:06:21;;;;;;;8.35;5.68;;;25.10;30.90;;;;;;5026924;28;20025;-47
2022/01/25 08:08:46;;;;;;;5.82;4.60;;;25.10;30.90;;;;;;5025305;28;20034;-46
2022/01/25 08:11:12;;;;;;;6.65;4.85;;;25.10;30.90;;;;;;5027351;28;20068;-46
2022/01/25 08:13:44;;;;;;;7.38;5.25;;;25.10;30.90;;;;;;5026856;28;20398;-47
2022/01/25 08:16:10;;;;;;;5.75;4.35;;;25.20;30.80;;;;;;5026827;28;20664;-44
2022/01/25 08:18:36;;;;;;;6.93;5.15;;;25.20;30.80;;;;;;5026506;28;20116;-47
2022/01/25 08:21:02;;;;;;;6.45;4.53;;;25.20;30.80;;;;;;5027292;28;20273;-44
2022/01/25 08:23:27;;;;;;;7.85;5.03;;;25.20;30.70;;;;;;5026318;28;20041;-43
2022/01/25 08:25:53;;;;;;;6.03;4.32;;;25.20;30.70;;;;;;5026488;28;20029;-48
2022/01/25 08:28:20;;;;;;;6.22;4.50;;;25.20;30.70;;;;;;5026313;28;20060;-46
2022/01/25 08:30:46;;;;;;;5.97;4.30;;;25.20;30.70;;;;;;5008462;28;20711;-45
2022/01/25 08:33:12;;;;;;;5.72;4.15;;;25.20;30.60;;;;;;5026905;28;20745;-45
2022/01/25 08:35:38;;;;;;;5.63;4.05;;;25.30;30.50;;;;;;5026572;28;20037;-44
2022/01/25 08:38:04;;;;;;;7.25;4.63;;;25.30;30.40;;;;;;5025873;28;20397;-47
2022/01/25 08:40:30;;;;;;;5.47;4.43;;;25.30;30.40;;;;;;5026662;28;20022;-46
2022/01/25 08:42:56;;;;;;;6.47;4.13;;;25.30;30.40;;;;;;5026935;28;20036;-44
2022/01/25 08:45:23;;;;;;;6.68;4.57;;;25.30;30.30;;;;;;5025095;28;20021;-45
2022/01/25 08:47:48;;;;;;;6.72;4.18;;;25.30;30.30;;;;;;5025840;28;20028;-46
2022/01/25 08:50:14;;;;;;;5.97;3.75;;;25.30;30.30;;;;;;5026096;28;20022;-44
2022/01/25 08:52:41;;;;;;;5.47;3.75;;;25.30;30.30;;;;;;5025733;28;20056;-44
2022/01/25 08:55:07;;;;;;;4.75;3.35;;;25.40;30.20;;;;;;5025022;28;20176;-46
2022/01/25 08:57:33;;;;;;;5.82;3.97;;;25.40;30.30;;;;;;5025805;28;20030;-45
2022/01/25 08:59:59;;;;;;;5.50;3.85;;;25.40;30.20;;;;;;5026064;28;20104;-46
2022/01/25 09:02:25;;;;;;;5.28;3.78;;;25.40;30.20;;;;;;5025595;28;20033;-45
2022/01/25 09:04:51;;;;;;;6.00;3.55;;;25.40;30.10;;;;;;5025973;28;20444;-45
2022/01/25 09:07:16;;;;;;;5.60;3.70;;;25.40;30.10;;;;;;5025511;28;20061;-45
2022/01/25 09:09:42;;;;;;;5.13;3.63;;;25.40;30.10;;;;;;5024250;28;20500;-44
2022/01/25 09:12:09;;;;;;;4.70;3.63;;;25.40;30.10;;;;;;5024717;28;20044;-46
2022/01/25 09:14:35;;;;;;;5.40;3.85;;;25.40;30.10;;;;;;5025878;28;20021;-44
2022/01/25 09:17:00;;;;;;;5.82;3.65;;;25.40;30.00;;;;;;5025877;28;20030;-44
2022/01/25 09:19:26;;;;;;;5.00;3.22;;;25.40;30.00;;;;;;5025464;28;20083;-44
2022/01/25 09:21:52;;;;;;;4.70;3.17;;;25.40;30.00;;;;;;5025561;28;20037;-45
2022/01/25 09:24:18;;;;;;;4.63;3.33;;;25.40;30.00;;;;;;5040643;28;20501;-44
2022/01/25 09:26:43;;;;;;;5.47;3.35;;;25.40;30.00;;;;;;5025686;28;20049;-44
2022/01/25 09:29:09;;;;;;;4.55;2.83;;;25.50;29.90;;;;;;5025479;28;20486;-45
2022/01/25 09:31:35;;;;;;;4.68;3.30;;;25.50;29.90;;;;;;5024834;28;20570;-45
2022/01/25 09:34:01;;;;;;;4.60;3.03;;;25.50;29.90;;;;;;5025086;28;20017;-45
2022/01/25 09:36:27;;;;;;;4.00;3.00;;;25.50;29.80;;;;;;5023395;28;20075;-46
2022/01/25 09:38:54;;;;;;;4.95;3.22;;;25.50;29.70;;;;;;5024592;28;20033;-46
2022/01/25 09:41:21;;;;;;;4.40;3.05;;;25.50;29.80;;;;;;5025157;28;20224;-44
2022/01/25 09:43:46;;;;;;;4.43;2.78;;;25.40;29.70;;;;;;5024646;28;20030;-44
2022/01/25 09:46:13;;;;;;;3.70;2.38;;;25.40;29.80;;;;;;5025078;28;20452;-44
2022/01/25 09:48:39;;;;;;;3.97;2.72;;;25.50;29.80;;;;;;5024705;28;20035;-44
2022/01/25 09:51:09;;;;;;;4.50;2.75;;;25.50;29.70;;;;;;5024879;28;20409;-45
2022/01/25 09:53:35;;;;;;;4.50;2.97;;;25.50;29.80;;;;;;5024237;28;20076;-43
2022/01/25 09:56:01;;;;;;;4.25;2.78;;;25.50;29.70;;;;;;5024227;28;20030;-44
2022/01/25 09:58:27;;;;;;;4.15;2.88;;;25.50;29.70;;;;;;5024231;28;20026;-45
2022/01/25 10:00:57;;;;;;;4.40;3.17;;;25.50;29.70;;;;;;5024376;28;20107;-44
2022/01/25 10:03:28;;;;;;;4.38;2.95;;;25.50;29.70;;;;;;5024642;28;20076;-44
2022/01/25 10:06:00;;;;;;;3.70;2.63;;;25.50;29.60;;;;;;5024444;28;20037;-47
2022/01/25 10:08:33;;;;;;;4.28;2.55;;;25.50;29.60;;;;;;5023425;28;20049;-46
2022/01/25 10:11:11;;;;;;;4.05;2.50;;;25.50;29.60;;;;;;5024859;28;20073;-44
2022/01/25 10:13:46;;;;;;;4.60;3.03;;;25.50;29.60;;;;;;5024623;28;20032;-44
2022/01/25 10:16:18;;;;;;;3.58;2.25;;;25.50;29.60;;;;;;5024587;28;20549;-45
2022/01/25 10:18:48;;;;;;;4.07;2.70;;;25.50;30.20;;;;;;5024306;28;20496;-46
2022/01/25 10:21:18;;;;;;;4.22;2.58;;;25.50;29.50;;;;;;5024655;28;20045;-44
2022/01/25 10:24:10;;;;;;;3.70;2.30;;;25.50;29.50;;;;;;5022872;28;20030;-44
2022/01/25 10:26:39;;;;;;;4.25;2.50;;;25.50;29.60;;;;;;5022943;28;20161;-45
2022/01/25 10:29:10;;;;;;;3.90;2.40;;;25.50;29.50;;;;;;5022825;28;20029;-44
2022/01/25 10:31:40;;;;;;;3.83;2.20;;;25.50;29.60;;;;;;5024310;28;20682;-45
2022/01/25 10:34:08;;;;;;;3.72;2.20;;;25.50;29.50;;;;;;5024621;28;20067;-45
2022/01/25 10:36:38;;;;;;;3.50;2.30;;;25.50;29.50;;;;;;5024126;28;20025;-44
2022/01/25 10:39:04;;;;;;;4.13;2.53;;;25.40;29.60;;;;;;5024248;28;20033;-47
2022/01/25 10:41:31;;;;;;;3.92;2.30;;;25.50;29.60;;;;;;5006673;28;20051;-45
2022/01/25 10:43:58;;;;;;;3.50;2.30;;;25.40;29.80;;;;;;5023007;28;20497;-46
2022/01/25 10:46:28;;;;;;;4.03;2.33;;;25.50;29.90;;;;;;5023976;28;20057;-44
2022/01/25 10:48:59;;;;;;;4.10;2.40;;;25.50;29.90;;;;;;5024493;28;20109;-44
2022/01/25 10:51:33;;;;;;;3.78;2.20;;;25.40;29.90;;;;;;5024561;28;20034;-47
2022/01/25 10:54:12;;;;;;;4.03;2.60;;;25.40;29.70;;;;;;5023871;28;20037;-47
2022/01/25 10:56:45;;;;;;;3.50;1.90;;;25.40;30.30;;;;;;5024168;28;20013;-45
2022/01/25 10:59:16;;;;;;;3.35;2.25;;;25.40;29.50;;;;;;5024261;28;20036;-44
2022/01/25 11:01:49;;;;;;;3.00;1.87;;;25.40;29.50;;;;;;5024374;28;20042;-45
2022/01/25 11:04:17;;;;;;;3.42;2.22;;;25.40;30.20;;;;;;5024552;28;20425;-44
2022/01/25 11:06:44;;;;;;;3.67;2.30;;;25.40;29.50;;;;;;5024058;28;20052;-44
2022/01/25 11:09:12;;;;;;;3.30;1.60;;;25.40;29.50;;;;;;5023866;28;20036;-46
2022/01/25 11:11:46;;;;;;;4.38;2.10;;;25.40;29.60;;;;;;5026062;28;20021;-44
2022/01/25 11:17:00;;;;;;;3.80;2.22;;;25.40;29.50;;;;;;5027700;28;20021;-48
2022/01/25 11:19:26;;;;;;;3.70;2.00;;;25.40;29.50;;;;;;5027915;28;20029;-46
2022/01/25 11:21:54;;;;;;;3.10;2.00;;;25.30;29.50;;;;;;5027615;28;20099;-43
2022/01/25 11:24:22;;;;;;;5.53;2.35;;;25.30;29.50;;;;;;5027879;28;20100;-44
2022/01/25 11:26:50;;;;;;;4.53;2.10;;;25.30;29.50;;;;;;5027349;28;20053;-44
2022/01/25 11:29:16;;;;;;;2.97;1.70;;;25.40;29.50;;;;;;5027834;28;20450;-44
2022/01/25 11:31:49;;;;;;;3.05;1.80;;;25.40;29.50;;;;;;5027345;28;20108;-44
2022/01/25 11:34:15;;;;;;;3.35;1.98;;;25.40;29.50;;;;;;5028003;28;20026;-43
2022/01/25 11:36:45;;;;;;;3.60;2.03;;;25.40;29.50;;;;;;5026094;28;20045;-47
2022/01/25 11:39:15;;;;;;;3.20;2.00;;;25.40;29.50;;;;;;5025852;28;20025;-44
2022/01/25 11:41:42;;;;;;;3.45;1.90;;;25.40;29.50;;;;;;5027191;28;20029;-48
2022/01/25 11:44:14;;;;;;;3.47;2.25;;;25.40;29.50;;;;;;5027803;28;20036;-46
2022/01/25 11:46:43;;;;;;;3.88;1.85;;;25.40;29.50;;;;;;5027425;28;20037;-44
2022/01/25 11:49:21;;;;;;;3.38;1.70;;;25.40;29.50;;;;;;5027472;28;20104;-47
2022/01/25 11:52:21;;;;;;;3.13;1.90;;;25.40;29.50;;;;;;5027492;28;20496;-44
2022/01/25 11:54:50;;;;;;;2.63;1.80;;;25.40;29.50;;;;;;5014779;28;20099;-46
2022/01/25 11:57:22;;;;;;;3.55;1.95;;;25.40;29.50;;;;;;5027329;28;20029;-43
2022/01/25 11:59:57;;;;;;;3.63;1.85;;;25.40;29.40;;;;;;5027142;28;20588;-44
2022/01/25 12:02:41;;;;;;;3.15;1.67;;;25.40;29.50;;;;;;5027155;28;20040;-45
2022/01/25 12:05:11;;;;;;;2.80;1.70;;;25.40;29.50;;;;;;5026181;28;20036;-44
2022/01/25 12:07:40;;;;;;;3.63;1.98;;;25.40;29.50;;;;;;5026617;28;20035;-47
2022/01/25 12:10:35;;;;;;;2.92;1.40;;;25.40;29.50;;;;;;5027296;28;20389;-46
2022/01/25 12:13:21;;;;;;;3.97;1.67;;;25.40;29.50;;;;;;5024658;28;20404;-47
2022/01/25 12:16:26;;;;;;;2.50;1.52;;;25.40;29.50;;;;;;5026919;28;20079;-44
2022/01/25 12:18:53;;;;;;;2.80;1.50;;;25.40;29.60;;;;;;5026741;28;20041;-46
2022/01/25 12:21:52;;;;;;;2.72;1.60;;;25.40;29.50;;;;;;5026627;28;20068;-43
2022/01/25 12:24:48;;;;;;;2.80;1.70;;;25.40;29.50;;;;;;5021950;28;20036;-43
2022/01/25 12:27:28;;;;;;;2.60;1.42;;;25.40;29.40;;;;;;5026394;28;20584;-44
2022/01/25 12:30:08;;;;;;;3.10;1.67;;;25.40;29.40;;;;;;5026798;28;20049;-44
2022/01/25 12:32:36;;;;;;;3.17;1.70;;;25.40;29.50;;;;;;5025608;28;20037;-44
2022/01/25 12:35:11;;;;;;;3.83;1.80;;;25.40;29.50;;;;;;5026522;28;20034;-44
2022/01/25 12:37:46;;;;;;;2.47;1.48;;;25.40;29.50;;;;;;5026233;28;20026;-47
2022/01/25 12:40:28;;;;;;;2.60;1.50;;;25.40;29.40;;;;;;5026575;28;20025;-43
2022/01/25 12:42:56;;;;;;;3.15;1.50;;;25.40;29.40;;;;;;5026639;28;20018;-44
2022/01/25 12:45:25;;;;;;;3.33;1.60;;;25.40;29.40;;;;;;5026589;28;20128;-44
2022/01/25 12:48:06;;;;;;;2.75;1.55;;;25.40;29.40;;;;;;5026481;28;20116;-46
2022/01/25 12:50:34;;;;;;;3.10;1.67;;;25.40;29.40;;;;;;5026227;28;20034;-45
2022/01/25 12:53:02;;;;;;;2.72;1.60;;;25.40;29.40;;;;;;5026140;28;20061;-43
2022/01/25 12:55:33;;;;;;;3.28;1.75;;;25.40;29.40;;;;;;5026334;28;20100;-45
2022/01/25 12:57:58;;;;;;;2.50;1.25;;;25.40;29.40;;;;;;5025548;28;20059;-43
2022/01/25 13:00:36;;;;;;;4.00;1.65;;;25.40;30.00;;;;;;5024540;28;20025;-45
2022/01/25 13:03:50;;;;;;;2.70;1.50;;;25.40;29.40;;;;;;5026165;28;20029;-44
2022/01/25 13:06:22;;;;;;;2.92;1.70;;;25.40;29.40;;;;;;5002336;28;20292;-44
2022/01/25 13:08:56;;;;;;;;;;;25.40;29.30;;;;;;5025828;28;20032;-44
2022/01/25 13:12:25;;;;;;;2.38;1.33;;;25.40;29.40;;;;;;5025912;28;19913;-45
2022/01/25 13:16:58;;;;;;;3.28;1.90;;;25.40;29.40;;;;;;5025847;28;20026;-44
2022/01/25 13:19:34;;;;;;;2.45;1.38;;;25.40;29.50;;;;;;5025989;28;20691;-44
2022/01/25 13:22:05;;;;;;;2.67;1.30;;;25.40;29.40;;;;;;5025960;28;20025;-43
2022/01/25 13:24:35;;;;;;;2.20;1.17;;;25.40;29.40;;;;;;5025505;28;20044;-46
2022/01/25 13:27:05;;;;;;;2.75;1.50;;;25.40;29.40;;;;;;5025438;28;20461;-47
2022/01/25 13:32:31;;;;;;;1.90;1.10;;;25.40;29.50;;;;;;5025791;28;20468;-44
2022/01/25 13:35:02;;;;;;;2.45;1.38;;;25.40;29.40;;;;;;5023815;28;20056;-46
2022/01/25 13:37:28;;;;;;;2.95;1.23;;;25.40;29.40;;;;;;5024967;28;20021;-43
2022/01/25 13:39:57;;;;;;;2.63;1.30;;;25.40;29.40;;;;;;5025194;28;20026;-44
2022/01/25 13:42:28;;;;;;;3.72;1.70;;;25.40;29.40;;;;;;5024882;28;20685;-44
2022/01/25 13:48:04;;;;;;;2.67;1.40;;;25.40;29.40;;;;;;5024136;28;20056;-44
2022/01/25 13:50:30;;;;;;;2.03;1.20;;;25.40;29.40;;;;;;5025386;28;20450;-44
2022/01/25 13:52:56;;;;;;;2.22;1.27;;;25.40;29.40;;;;;;5024847;28;20100;-43
2022/01/25 13:55:22;;;;;;;2.58;1.40;;;25.40;29.40;;;;;;5025422;28;20105;-44
2022/01/25 13:57:48;;;;;;;2.60;1.30;;;25.40;29.40;;;;;;5024651;28;20097;-45
2022/01/25 14:00:16;;;;;;;2.92;1.30;;;25.40;29.40;;;;;;5023929;28;20025;-46
2022/01/25 14:02:46;;;;;;;2.40;1.20;;;25.40;29.40;;;;;;5024774;28;20033;-44
2022/01/25 14:05:12;;;;;;;2.97;1.63;;;25.40;29.40;;;;;;5025019;28;20022;-46
2022/01/25 14:07:38;;;;;;;2.45;1.38;;;25.40;29.40;;;;;;5024719;28;20029;-46
2022/01/25 14:10:11;;;;;;;2.17;1.27;;;25.40;29.40;;;;;;5024791;28;20055;-46
2022/01/25 14:23:45;;;;;;;2.25;1.27;;;25.40;29.30;;;;;;5024507;28;20527;-46
2022/01/25 14:26:11;;;;;;;3.58;1.50;;;25.40;29.40;;;;;;5024667;28;20044;-46
2022/01/25 14:28:43;;;;;;;2.40;1.40;;;25.40;29.30;;;;;;5024337;28;20055;-44
2022/01/25 14:31:22;;;;;;;2.47;1.30;;;25.40;29.30;;;;;;5024379;28;20033;-44
2022/01/25 14:33:56;;;;;;;3.25;1.38;;;25.40;29.30;;;;;;5024816;28;20029;-45
2022/01/25 14:36:24;;;;;;;3.08;1.83;;;25.40;29.30;;;;;;5024690;28;20018;-44
2022/01/25 14:38:52;;;;;;;3.00;1.70;;;25.40;29.30;;;;;;5023895;28;20026;-45
2022/01/25 14:41:25;;;;;;;2.42;1.45;;;25.40;29.30;;;;;;5024124;28;20092;-45
2022/01/25 14:43:53;;;;;;;2.60;1.35;;;25.40;29.30;;;;;;5024099;28;20033;-43
2022/01/25 14:46:50;;;;;;;3.53;1.75;;;25.40;29.40;;;;;;5027240;28;20028;-44
2022/01/25 14:49:27;;;;;;;2.80;1.30;;;25.40;29.40;;;;;;5027822;28;20034;-43
2022/01/25 14:52:04;;;;;;;2.55;1.60;;;25.40;29.30;;;;;;5028496;28;20571;-45
2022/01/25 14:54:35;;;;;;;2.88;1.45;;;25.40;29.40;;;;;;5028017;28;20041;-45
2022/01/25 14:57:05;;;;;;;2.38;1.17;;;25.40;29.30;;;;;;5027831;28;20030;-44
2022/01/25 14:59:33;;;;;;;2.53;1.42;;;25.40;29.30;;;;;;5028661;28;20485;-45
2022/01/25 15:02:28;;;;;;;2.45;1.40;;;25.40;29.30;;;;;;5026962;28;20120;-44
2022/01/25 15:04:57;;;;;;;2.75;1.45;;;25.40;29.30;;;;;;5028156;28;20112;-46